createdAt,value
2022-09-06T00:02:08.425Z,100242.66
2022-09-06T00:04:36.177Z,100236.97
2022-09-06T00:07:06.589Z,100238.69
2022-09-06T00:09:34.217Z,100234.75
2022-09-06T00:12:02.491Z,100236.19
2022-09-06T00:14:29.914Z,100238.56
2022-09-06T00:16:57.427Z,100234.16
2022-09-06T00:19:25.191Z,100231.66
2022-09-06T00:21:52.686Z,100231.34
2022-09-06T00:24:22.906Z,100234.50
2022-09-06T00:26:54.231Z,100236.59
2022-09-06T00:29:21.651Z,100240.31
2022-09-06T00:31:49.086Z,100239.31
2022-09-06T00:34:16.815Z,100242.88
2022-09-06T00:36:44.272Z,100252.69
2022-09-06T00:39:14.551Z,100241.78
2022-09-06T00:41:42.326Z,100235.06
2022-09-06T00:44:10.142Z,100235.56
2022-09-06T00:46:46.518Z,100233.72
2022-09-06T00:49:24.436Z,100238.16
2022-09-06T00:51:54.229Z,100234.56
2022-09-06T00:54:22.321Z,100233.53
2022-09-06T00:56:49.996Z,100237.63
2022-09-06T00:59:17.672Z,100238.16
2022-09-06T01:01:45.524Z,100238.56
2022-09-06T01:04:13.538Z,100244.50
2022-09-06T01:06:47.141Z,100239.03
2022-09-06T01:09:27.162Z,100239.75
2022-09-06T01:12:30.095Z,100236.34
2022-09-06T01:15:26.082Z,100233.69
2022-09-06T01:18:15.139Z,100229.66
2022-09-06T01:20:51.029Z,100230.63
2022-09-06T01:23:56.203Z,100232.38
2022-09-06T01:26:45.594Z,100235.16
2022-09-06T01:29:31.288Z,100225.50
2022-09-06T01:32:11.129Z,100231.28
2022-09-06T01:34:44.356Z,100231.62
2022-09-06T01:37:17.125Z,100223.25
2022-09-06T01:39:44.747Z,100222.53
2022-09-06T01:42:22.275Z,100225.69
2022-09-06T01:45:08.566Z,100224.16
2022-09-06T01:47:40.919Z,100227.19
2022-09-06T01:50:35.238Z,100223.44
2022-09-06T01:53:34.148Z,100227.28
2022-09-06T01:56:07.965Z,100220.47
2022-09-06T01:58:41.855Z,100218.16
2022-09-06T02:01:22.812Z,100211.94
2022-09-06T02:04:15.698Z,100214.91
2022-09-06T02:06:46.315Z,100211.97
2022-09-06T02:09:18.172Z,100217.38
2022-09-06T02:11:49.193Z,100216.59
2022-09-06T02:14:24.968Z,100214.91
2022-09-06T02:16:53.999Z,100220.41
2022-09-06T02:19:25.040Z,100220.37
2022-09-06T02:21:53.336Z,100210.06
2022-09-06T02:24:23.815Z,100212.66
2022-09-06T02:26:51.632Z,100209.97
2022-09-06T02:29:19.106Z,100208.31
2022-09-06T02:31:59.960Z,100205.06
2022-09-06T02:34:27.846Z,100203.16
2022-09-06T02:36:55.993Z,100202.87
2022-09-06T02:39:23.559Z,100208.31
2022-09-06T02:41:51.489Z,100205.94
2022-09-06T02:44:18.959Z,100206.53
2022-09-06T02:46:46.420Z,100207.66
2022-09-06T02:49:14.194Z,100205.06
2022-09-06T02:51:41.703Z,100204.03
2022-09-06T02:54:09.113Z,100203.97
2022-09-06T02:56:37.025Z,100210.13
2022-09-06T02:59:05.047Z,100207.59
2022-09-06T03:01:33.215Z,100199.81
2022-09-06T03:04:01.031Z,100193.37
2022-09-06T03:06:28.562Z,100205.53
2022-09-06T03:08:56.058Z,100193.69
2022-09-06T03:11:23.816Z,100199.19
2022-09-06T03:13:52.623Z,100192.50
2022-09-06T03:16:20.708Z,100204.28
2022-09-06T03:18:48.402Z,100193.34
2022-09-06T03:21:15.793Z,100196.84
2022-09-06T03:23:43.216Z,100189.56
2022-09-06T03:26:11.034Z,100202.13
2022-09-06T03:28:38.586Z,100196.13
2022-09-06T03:31:06.307Z,100198.12
2022-09-06T03:33:34.220Z,100200.53
2022-09-06T03:36:03.467Z,100198.19
2022-09-06T03:38:31.423Z,100195.69
2022-09-06T03:40:59.518Z,100196.81
2022-09-06T03:43:31.443Z,100199.91
2022-09-06T03:45:59.626Z,100197.72
2022-09-06T03:48:29.610Z,100205.41
2022-09-06T03:50:58.923Z,100201.78
2022-09-06T03:53:28.217Z,100204.81
2022-09-06T03:55:57.810Z,100204.38
2022-09-06T03:58:30.716Z,100202.41
2022-09-06T04:01:05.709Z,100207.59
2022-09-06T04:03:38.823Z,100207.97
2022-09-06T04:06:10.068Z,100207.66
2022-09-06T04:08:39.057Z,100210.25
2022-09-06T04:11:07.394Z,100200.69
2022-09-06T04:13:36.063Z,100204.66
2022-09-06T04:16:10.990Z,100207.19
2022-09-06T04:18:39.112Z,100200.00
2022-09-06T04:21:07.953Z,100200.41
2022-09-06T04:23:40.024Z,100206.63
2022-09-06T04:26:09.233Z,100209.41
2022-09-06T04:28:39.744Z,100208.62
2022-09-06T04:31:07.404Z,100207.56
2022-09-06T04:33:36.575Z,100211.00
2022-09-06T04:36:09.383Z,100219.72
2022-09-06T04:38:39.406Z,100210.69
2022-09-06T04:41:07.782Z,100213.47
2022-09-06T04:43:36.107Z,100210.59
2022-09-06T04:46:27.430Z,100208.16
2022-09-06T04:48:56.727Z,100208.84
2022-09-06T04:51:25.649Z,100203.69
2022-09-06T04:53:53.486Z,100205.88
2022-09-06T04:56:23.324Z,100204.56
2022-09-06T04:58:52.803Z,100209.87
2022-09-06T05:01:20.809Z,100203.28
2022-09-06T05:03:53.948Z,100202.25
2022-09-06T05:06:25.486Z,100193.50
2022-09-06T05:08:53.149Z,100198.44
2022-09-06T05:11:21.360Z,100204.03
2022-09-06T05:13:50.402Z,100206.03
2022-09-06T05:16:18.556Z,100209.50
2022-09-06T05:18:46.994Z,100203.09
2022-09-06T05:21:16.570Z,100203.63
2022-09-06T05:23:45.631Z,100208.84
2022-09-06T05:26:13.695Z,100208.53
2022-09-06T05:28:42.046Z,100216.47
2022-09-06T05:31:12.226Z,100218.69
2022-09-06T05:33:40.250Z,100210.78
2022-09-06T05:36:08.613Z,100205.19
2022-09-06T05:38:36.670Z,100207.50
2022-09-06T05:41:04.422Z,100208.50
2022-09-06T05:43:32.968Z,100212.53
2022-09-06T05:46:00.856Z,100212.06
2022-09-06T05:48:36.653Z,100213.75
2022-09-06T05:51:12.772Z,100210.06
2022-09-06T05:53:43.819Z,100208.19
2022-09-06T05:56:13.126Z,100208.38
2022-09-06T05:58:41.344Z,100204.59
2022-09-06T06:01:17.155Z,100214.66
2022-09-06T06:03:57.262Z,100216.63
2022-09-06T06:06:29.863Z,100216.19
2022-09-06T06:08:58.511Z,100215.16
2022-09-06T06:11:38.769Z,100213.63
2022-09-06T06:14:06.874Z,100209.69
2022-09-06T06:16:34.716Z,100213.41
2022-09-06T06:19:02.470Z,100206.28
2022-09-06T06:21:33.926Z,100218.12
2022-09-06T06:24:03.742Z,100209.25
2022-09-06T06:26:33.443Z,100208.28
2022-09-06T06:29:04.047Z,100214.31
2022-09-06T06:31:33.094Z,100214.59
2022-09-06T06:34:03.773Z,100216.13
2022-09-06T06:36:36.141Z,100214.88
2022-09-06T06:39:06.404Z,100209.87
2022-09-06T06:41:34.305Z,100217.09
2022-09-06T06:44:03.898Z,100212.72
2022-09-06T06:46:34.060Z,100221.78
2022-09-06T06:49:01.652Z,100216.22
2022-09-06T06:51:31.627Z,100229.06
2022-09-06T06:54:00.041Z,100227.19
2022-09-06T06:56:36.416Z,100233.81
2022-09-06T06:59:05.971Z,100236.41
2022-09-06T07:01:34.593Z,100229.34
2022-09-06T07:04:02.226Z,100230.50
2022-09-06T07:12:21.621Z,100235.91
2022-09-06T07:14:49.057Z,100235.34
2022-09-06T07:17:16.559Z,100243.34
2022-09-06T07:22:31.943Z,100244.28
2022-09-06T07:24:59.659Z,100249.34
2022-09-06T07:30:14.410Z,100255.41
2022-09-06T07:32:42.009Z,100250.94
2022-09-06T07:35:09.603Z,100242.84
2022-09-06T07:37:37.386Z,100248.09
2022-09-06T07:40:05.437Z,100244.78
2022-09-06T07:42:36.439Z,100251.47
2022-09-06T07:45:05.320Z,100248.56
2022-09-06T07:53:11.944Z,100244.88
2022-09-06T07:55:53.935Z,100247.84
2022-09-06T07:58:24.011Z,100249.09
2022-09-06T08:00:51.526Z,100248.88
2022-09-06T08:03:19.337Z,100251.59
2022-09-06T08:11:29.305Z,100251.63
2022-09-06T08:13:58.285Z,100242.22
2022-09-06T08:16:28.112Z,100247.66
2022-09-06T08:18:57.385Z,100239.91
2022-09-06T08:21:26.810Z,100233.66
2022-09-06T08:24:00.055Z,100231.75
2022-09-06T08:26:29.855Z,100233.41
2022-09-06T08:29:03.413Z,100235.31
2022-09-06T08:31:31.997Z,100227.78
2022-09-06T08:34:00.785Z,100231.75
2022-09-06T08:36:32.320Z,100224.25
2022-09-06T08:39:01.612Z,100222.12
2022-09-06T08:41:56.605Z,100227.78
2022-09-06T08:47:17.928Z,100223.56
2022-09-06T08:49:53.930Z,100224.59
2022-09-06T08:53:13.086Z,100222.19
2022-09-06T08:55:54.974Z,100225.75
2022-09-06T08:58:38.179Z,100216.72
2022-09-06T09:01:16.471Z,100211.34
2022-09-06T09:03:44.824Z,100219.25
2022-09-06T09:06:13.042Z,100213.81
2022-09-06T09:09:07.929Z,100215.22
2022-09-06T09:11:36.441Z,100212.47
2022-09-06T09:14:06.371Z,100210.56
2022-09-06T09:16:34.384Z,100205.75
2022-09-06T09:19:04.525Z,100198.56
2022-09-06T09:21:35.086Z,100198.06
2022-09-06T09:24:06.312Z,100194.31
2022-09-06T09:26:55.817Z,100192.31
2022-09-06T09:29:28.057Z,100186.28
2022-09-06T09:31:57.342Z,100185.38
2022-09-06T09:34:35.846Z,100178.22
2022-09-06T09:40:27.713Z,100178.28
2022-09-06T09:43:08.338Z,100175.31
2022-09-06T09:45:36.034Z,100169.00
2022-09-06T09:48:20.969Z,100163.63
2022-09-06T09:50:50.177Z,100161.00
2022-09-06T09:53:21.678Z,100159.59
2022-09-06T09:55:56.977Z,100159.59
2022-09-06T09:58:33.804Z,100159.44
2022-09-06T10:01:11.036Z,100155.81
2022-09-06T10:09:19.336Z,100139.34
2022-09-06T10:11:56.038Z,100140.53
2022-09-06T10:14:53.617Z,100133.13
2022-09-06T10:17:29.792Z,100131.19
2022-09-06T10:20:00.532Z,100134.84
2022-09-06T10:22:37.142Z,100131.47
2022-09-06T10:25:48.909Z,100122.97
2022-09-06T10:28:24.991Z,100127.78
2022-09-06T10:31:11.542Z,100123.62
2022-09-06T10:34:10.392Z,100121.72
2022-09-06T10:36:41.092Z,100118.97
2022-09-06T10:39:38.592Z,100117.56
2022-09-06T10:42:13.744Z,100117.09
2022-09-06T10:45:07.364Z,100107.19
2022-09-06T10:47:46.575Z,100100.22
2022-09-06T10:50:14.530Z,100100.44
2022-09-06T10:52:44.435Z,100097.59
2022-09-06T10:55:15.102Z,100101.28
2022-09-06T11:00:46.825Z,100107.72
2022-09-06T11:06:09.484Z,100109.50
2022-09-06T11:11:23.325Z,100109.84
2022-09-06T11:13:51.225Z,100107.09
2022-09-06T11:16:29.277Z,100100.56
2022-09-06T11:18:57.200Z,100099.88
2022-09-06T11:21:43.440Z,100097.59
2022-09-06T11:24:31.181Z,100099.00
2022-09-06T11:27:33.730Z,100098.81
2022-09-06T11:30:02.503Z,100093.53
2022-09-06T11:32:43.423Z,100082.06
2022-09-06T11:35:28.715Z,100080.16
2022-09-06T11:38:18.131Z,100075.28
2022-09-06T11:41:03.519Z,100072.34
2022-09-06T11:43:51.917Z,100071.16
2022-09-06T11:46:35.035Z,100074.66
2022-09-06T11:49:05.550Z,100065.59
2022-09-06T11:51:45.720Z,100067.87
2022-09-06T11:54:22.415Z,100060.66
2022-09-06T11:56:57.713Z,100057.66
2022-09-06T11:59:25.561Z,100056.00
2022-09-06T12:01:56.690Z,100055.72
2022-09-06T12:04:24.700Z,100051.66
2022-09-06T12:07:12.624Z,100044.37
2022-09-06T12:09:42.686Z,100031.91
2022-09-06T12:12:16.229Z,100036.03
2022-09-06T12:14:48.899Z,100039.84
2022-09-06T12:17:30.804Z,100036.06
2022-09-06T12:20:07.470Z,100032.66
2022-09-06T12:22:40.916Z,100031.03
2022-09-06T12:25:29.639Z,100025.59
2022-09-06T12:27:59.306Z,100016.78
2022-09-06T12:30:44.578Z,100004.19
2022-09-06T12:33:22.421Z,100003.44
2022-09-06T12:35:58.479Z,100000.34
2022-09-06T12:38:26.608Z,99993.34
2022-09-06T12:41:01.230Z,99998.38
2022-09-06T12:43:31.204Z,99991.66
2022-09-06T12:46:03.547Z,99985.19
2022-09-06T12:48:33.787Z,99990.12
2022-09-06T12:51:13.775Z,99993.66
2022-09-06T12:53:54.311Z,99978.44
2022-09-06T12:56:28.755Z,99974.69
2022-09-06T12:59:20.104Z,99973.28
2022-09-06T13:02:01.277Z,99971.75
2022-09-06T13:04:32.453Z,99969.53
2022-09-06T13:07:12.351Z,99959.75
2022-09-06T13:09:43.676Z,99958.03
2022-09-06T13:12:38.591Z,99955.78
2022-09-06T13:15:28.512Z,99950.81
2022-09-06T13:18:27.435Z,99957.59
2022-09-06T13:21:20.440Z,99950.34
2022-09-06T13:23:50.973Z,99943.25
2022-09-06T13:26:37.879Z,99945.31
2022-09-06T13:29:12.574Z,99943.94
2022-09-06T13:31:45.438Z,99936.72
2022-09-06T13:34:20.808Z,99934.34
2022-09-06T13:36:49.972Z,99928.44
2022-09-06T13:39:50.302Z,99912.63
2022-09-06T13:42:29.608Z,99912.41
2022-09-06T13:45:01.948Z,99909.06
2022-09-06T13:47:30.166Z,99909.87
2022-09-06T13:49:57.875Z,99904.94
2022-09-06T13:52:25.442Z,99910.19
2022-09-06T13:54:52.907Z,99902.19
2022-09-06T13:57:24.364Z,99901.31
2022-09-06T13:59:52.225Z,99901.25
2022-09-06T14:02:20.952Z,99901.75
2022-09-06T14:04:48.727Z,99902.03
2022-09-06T14:07:16.208Z,99893.44
2022-09-06T14:09:43.929Z,99893.22
2022-09-06T14:12:11.634Z,99885.25
2022-09-06T14:14:39.301Z,99889.25
2022-09-06T14:17:10.183Z,99887.63
2022-09-06T14:19:38.038Z,99889.69
2022-09-06T14:22:07.198Z,99888.28
2022-09-06T14:24:34.736Z,99879.72
2022-09-06T14:27:02.807Z,99875.44
2022-09-06T14:29:34.902Z,99893.97
2022-09-06T14:32:03.025Z,99894.28
2022-09-06T14:34:30.990Z,99882.69
2022-09-06T14:36:58.505Z,99881.78
2022-09-06T14:39:26.308Z,99883.62
2022-09-06T14:41:54.059Z,99879.25
2022-09-06T14:44:21.607Z,99880.88
2022-09-06T14:46:53.560Z,99872.59
2022-09-06T14:49:21.053Z,99879.09
2022-09-06T14:51:48.890Z,99875.59
2022-09-06T14:54:16.701Z,99884.63
2022-09-06T14:56:44.294Z,99876.66
2022-09-06T14:59:12.454Z,99869.03
2022-09-06T15:01:40.917Z,99877.38
2022-09-06T15:04:12.199Z,99886.66
2022-09-06T15:06:44.235Z,99897.88
2022-09-06T15:09:11.865Z,99914.41
2022-09-06T15:11:41.873Z,99931.87
2022-09-06T15:14:18.020Z,99942.38
2022-09-06T15:16:46.378Z,99959.97
2022-09-06T15:19:14.611Z,99971.13
2022-09-06T15:21:42.380Z,99998.66
2022-09-06T15:24:12.154Z,100000.75
2022-09-06T15:26:41.585Z,99984.63
2022-09-06T15:29:10.278Z,99969.50
2022-09-06T15:31:38.573Z,99947.53
2022-09-06T15:34:07.963Z,99919.38
2022-09-06T15:36:36.540Z,99911.22
2022-09-06T15:39:04.973Z,99902.87
2022-09-06T15:41:36.115Z,99893.22
2022-09-06T15:44:11.899Z,99898.72
2022-09-06T15:46:54.127Z,99900.25
2022-09-06T15:49:32.148Z,99904.63
2022-09-06T15:52:02.038Z,99895.50
2022-09-06T15:54:48.354Z,99891.84
2022-09-06T15:57:16.961Z,99889.97
2022-09-06T15:59:44.657Z,99888.47
2022-09-06T16:02:12.799Z,99887.72
2022-09-06T16:04:46.848Z,99894.37
2022-09-06T16:07:14.341Z,99892.72
2022-09-06T16:09:42.620Z,99900.44
2022-09-06T16:12:10.090Z,99908.19
2022-09-06T16:14:37.910Z,99899.38
2022-09-06T16:17:05.828Z,99905.31
2022-09-06T16:19:33.460Z,99897.75
2022-09-06T16:22:01.086Z,99910.19
2022-09-06T16:24:32.165Z,99912.13
2022-09-06T16:26:59.721Z,99919.56
2022-09-06T16:29:27.229Z,99930.16
2022-09-06T16:31:59.801Z,99926.13
2022-09-06T16:34:27.552Z,99932.66
2022-09-06T16:36:57.098Z,99919.25
2022-09-06T16:39:24.691Z,99923.66
2022-09-06T16:41:52.213Z,99915.72
2022-09-06T16:44:20.059Z,99911.63
2022-09-06T16:46:49.839Z,99910.72
2022-09-06T16:49:19.313Z,99914.34
2022-09-06T16:51:48.622Z,99902.22
2022-09-06T16:54:17.154Z,99898.69
2022-09-06T16:56:45.221Z,99898.84
2022-09-06T16:59:15.214Z,99902.25
2022-09-06T17:01:47.138Z,99912.28
2022-09-06T17:04:15.434Z,99917.06
2022-09-06T17:06:45.803Z,99923.22
2022-09-06T17:09:16.308Z,99921.97
2022-09-06T17:11:54.115Z,99934.31
2022-09-06T17:14:23.810Z,99946.28
2022-09-06T17:17:13.733Z,99944.56
2022-09-06T17:19:41.606Z,99943.62
2022-09-06T17:22:10.831Z,99946.16
2022-09-06T17:24:39.089Z,99947.44
2022-09-06T17:27:09.982Z,99947.19
2022-09-06T17:29:40.001Z,99942.31
2022-09-06T17:32:10.309Z,99941.47
2022-09-06T17:34:39.499Z,99935.69
2022-09-06T17:37:07.114Z,99939.19
2022-09-06T17:39:34.752Z,99944.66
2022-09-06T17:42:02.746Z,99945.09
2022-09-06T17:44:30.421Z,99939.69
2022-09-06T17:47:14.327Z,99944.78
2022-09-06T17:49:42.868Z,99947.06
2022-09-06T17:52:10.729Z,99944.38
2022-09-06T17:54:38.426Z,99936.47
2022-09-06T17:57:06.586Z,99933.16
2022-09-06T17:59:35.754Z,99932.91
2022-09-06T18:02:04.650Z,99937.91
2022-09-06T18:04:32.554Z,99946.06
2022-09-06T18:07:00.296Z,99935.84
2022-09-06T18:09:28.018Z,99925.63
2022-09-06T18:11:56.156Z,99930.84
2022-09-06T18:14:24.064Z,99924.03
2022-09-06T18:16:52.482Z,99928.56
2022-09-06T18:19:21.406Z,99934.84
2022-09-06T18:21:49.295Z,99927.31
2022-09-06T18:24:17.310Z,99931.91
2022-09-06T18:26:45.161Z,99936.03
2022-09-06T18:29:15.183Z,99945.16
2022-09-06T18:31:43.832Z,99948.53
2022-09-06T18:34:12.811Z,99958.75
2022-09-06T18:36:40.885Z,99968.56
2022-09-06T18:39:08.785Z,99967.91
2022-09-06T18:41:55.497Z,99967.91
2022-09-06T18:44:24.121Z,99963.53
2022-09-06T18:46:56.001Z,99952.50
2022-09-06T18:49:24.957Z,99942.69
2022-09-06T18:51:53.607Z,99943.88
2022-09-06T18:54:21.380Z,99939.31
2022-09-06T18:56:50.454Z,99944.38
2022-09-06T18:59:18.689Z,99944.16
2022-09-06T19:01:46.921Z,99942.94
2022-09-06T19:04:14.853Z,99938.34
2022-09-06T19:06:43.781Z,99934.00
2022-09-06T19:09:14.684Z,99943.16
2022-09-06T19:11:46.002Z,99945.00
2022-09-06T19:14:14.395Z,99946.66
2022-09-06T19:16:42.531Z,99946.69
2022-09-06T19:19:10.529Z,99953.13
2022-09-06T19:21:42.002Z,99948.53
2022-09-06T19:24:12.084Z,99950.22
2022-09-06T19:26:42.212Z,99960.34
2022-09-06T19:29:15.692Z,99952.63
2022-09-06T19:31:44.867Z,99952.69
2022-09-06T19:34:13.887Z,99944.16
2022-09-06T19:36:41.802Z,99950.19
2022-09-06T19:39:12.772Z,99951.66
2022-09-06T19:41:45.397Z,99943.31
2022-09-06T19:44:14.819Z,99941.22
2022-09-06T19:46:45.958Z,99944.03
2022-09-06T19:49:16.458Z,99928.06
2022-09-06T19:51:45.583Z,99933.47
2022-09-06T19:54:13.519Z,99932.69
2022-09-06T19:56:42.171Z,99927.25
2022-09-06T19:59:12.812Z,99926.03
2022-09-06T20:01:42.170Z,99925.78
2022-09-06T20:04:12.086Z,99917.94
2022-09-06T20:06:40.080Z,99910.66
2022-09-06T20:09:09.529Z,99919.78
2022-09-06T20:11:38.832Z,99916.91
2022-09-06T20:14:07.183Z,99916.87
2022-09-06T20:16:39.356Z,99920.81
2022-09-06T20:19:09.430Z,99913.53
2022-09-06T20:21:37.238Z,99913.50
2022-09-06T20:24:05.215Z,99909.34
2022-09-06T20:26:33.613Z,99914.78
2022-09-06T20:29:02.666Z,99915.63
2022-09-06T20:31:31.624Z,99920.19
2022-09-06T20:34:01.056Z,99910.31
2022-09-06T20:36:29.185Z,99921.22
2022-09-06T20:38:57.213Z,99929.88
2022-09-06T20:41:26.415Z,99917.03
2022-09-06T20:43:56.194Z,99918.28
2022-09-06T20:46:27.149Z,99922.22
2022-09-06T20:48:57.138Z,99917.66
2022-09-06T20:51:25.535Z,99918.28
2022-09-06T20:53:55.485Z,99926.03
2022-09-06T20:56:29.069Z,99927.81
2022-09-06T20:59:01.122Z,99927.16
2022-09-06T21:01:31.224Z,99929.25
2022-09-06T21:04:00.125Z,99928.97
2022-09-06T21:06:29.823Z,99935.44
2022-09-06T21:08:58.114Z,99930.00
2022-09-06T21:11:25.987Z,99928.81
2022-09-06T21:13:56.554Z,99917.72
2022-09-06T21:16:29.072Z,99920.00
2022-09-06T21:18:58.651Z,99923.72
2022-09-06T21:21:27.617Z,99920.47
2022-09-06T21:23:55.385Z,99917.13
2022-09-06T21:26:23.473Z,99911.38
2022-09-06T21:28:51.288Z,99912.19
2022-09-06T21:31:30.256Z,99916.13
2022-09-06T21:34:18.007Z,99923.19
2022-09-06T21:36:45.633Z,99915.09
2022-09-06T21:39:13.472Z,99902.81
2022-09-06T21:41:51.110Z,99913.41
2022-09-06T21:44:24.242Z,99907.56
2022-09-06T21:46:58.792Z,99909.03
2022-09-06T21:49:26.513Z,99907.16
2022-09-06T21:51:53.883Z,99907.34
2022-09-06T21:54:24.439Z,99901.75
2022-09-06T21:56:52.278Z,99902.78
2022-09-06T21:59:19.688Z,99897.19
2022-09-06T22:01:47.177Z,99896.22
2022-09-06T22:04:14.984Z,99899.31
2022-09-06T22:06:42.438Z,99898.91
2022-09-06T22:09:12.457Z,99890.16
2022-09-06T22:11:42.789Z,99898.59
2022-09-06T22:14:11.815Z,99899.66
2022-09-06T22:16:40.205Z,99909.37
2022-09-06T22:19:10.428Z,99903.53
2022-09-06T22:21:38.851Z,99897.41
2022-09-06T22:24:08.429Z,99907.97
2022-09-06T22:26:37.565Z,99909.19
2022-09-06T22:29:07.605Z,99907.97
2022-09-06T22:31:36.032Z,99895.69
2022-09-06T22:34:04.229Z,99906.50
2022-09-06T22:36:34.738Z,99905.88
2022-09-06T22:39:08.053Z,99905.84
2022-09-06T22:41:35.910Z,99904.78
2022-09-06T22:44:04.043Z,99901.44
2022-09-06T22:46:32.333Z,99898.16
2022-09-06T22:49:04.839Z,99899.19
2022-09-06T22:51:38.118Z,99898.09
2022-09-06T22:54:06.056Z,99888.50
2022-09-06T22:56:33.635Z,99890.19
2022-09-06T22:59:01.344Z,99893.66
2022-09-06T23:01:29.332Z,99887.37
2022-09-06T23:03:56.783Z,99891.16
2022-09-06T23:06:24.455Z,99885.25
2022-09-06T23:08:52.247Z,99888.78
2022-09-06T23:11:22.392Z,99887.19
2022-09-06T23:13:54.798Z,99892.13
2022-09-06T23:16:22.697Z,99892.06
2022-09-06T23:18:50.540Z,99892.09
2022-09-06T23:21:20.957Z,99876.38
2022-09-06T23:23:50.516Z,99881.19
2022-09-06T23:26:20.888Z,99879.25
2022-09-06T23:28:51.780Z,99889.97
2022-09-06T23:31:19.777Z,99891.66
2022-09-06T23:33:47.429Z,99889.88
2022-09-06T23:36:15.037Z,99888.09
2022-09-06T23:38:42.826Z,99886.06
2022-09-06T23:41:11.129Z,99876.28
2022-09-06T23:43:39.548Z,99876.47
2022-09-06T23:46:08.066Z,99877.63
2022-09-06T23:48:37.105Z,99869.34
2022-09-06T23:51:05.412Z,99880.31
2022-09-06T23:53:33.303Z,99875.41
2022-09-06T23:56:01.419Z,99873.53
2022-09-06T23:58:28.916Z,99873.34
